Time;durP1;ratioP1;P1;durP2;ratioP2;P2;SDS_P1;SDS_P2;PMS_P1;PMS_P2;Temp;Humidity;BMP_temperature;BMP_pressure;BME280_temperature;BME280_humidity;BME280_pressure;Samples;Min_cycle;Max_cycle;Signal;HPM_P1;HPM_P2
2021/10/20 00:02:05;;;;;;;9.63;5.70;;;;;;;10.12;64.14;97691.97;1765019;80;26617;-84
2021/10/20 00:04:31;;;;;;;7.85;5.30;;;;;;;10.10;64.10;97688.63;1762753;81;26343;-83
2021/10/20 00:06:59;;;;;;;7.92;5.22;;;;;;;10.10;64.08;97684.59;1757601;81;27433;-84
2021/10/20 00:09:26;;;;;;;11.35;6.67;;;;;;;10.12;63.97;97685.23;1750280;79;25851;-85
2021/10/20 00:11:52;;;;;;;7.85;5.53;;;;;;;10.14;63.93;97688.55;1781250;79;25878;-85
2021/10/20 00:14:19;;;;;;;9.25;6.08;;;;;;;10.16;63.82;97686.47;1765302;79;25735;-84
2021/10/20 00:16:46;;;;;;;10.55;6.33;;;;;;;10.20;63.74;97670.75;1765096;80;25718;-84
2021/10/20 00:19:12;;;;;;;11.25;5.90;;;;;;;10.22;63.75;97677.61;1761271;81;27532;-84
2021/10/20 00:21:39;;;;;;;8.63;4.78;;;;;;;10.25;63.72;97674.52;1748088;80;25956;-84
2021/10/20 00:24:06;;;;;;;7.90;5.58;;;;;;;10.24;63.69;97666.63;1765336;79;25716;-84
2021/10/20 00:26:32;;;;;;;10.50;6.25;;;;;;;10.26;63.61;97668.09;1765189;80;26519;-84
2021/10/20 00:28:59;;;;;;;12.30;5.85;;;;;;;10.27;63.62;97666.19;1765405;79;25563;-83
2021/10/20 00:31:25;;;;;;;9.10;6.00;;;;;;;10.25;63.61;97658.33;1765025;80;27972;-85
2021/10/20 00:33:52;;;;;;;9.35;6.17;;;;;;;10.27;63.50;97653.53;1763080;81;25813;-85
2021/10/20 00:36:18;;;;;;;10.90;5.87;;;;;;;10.30;63.53;97660.40;1762954;81;25822;-84
2021/10/20 00:38:45;;;;;;;9.95;6.05;;;;;;;10.30;63.51;97655.84;1762700;81;26455;-85
2021/10/20 00:41:12;;;;;;;11.30;6.30;;;;;;;10.30;63.51;97649.09;1759837;80;25781;-84
2021/10/20 00:43:41;;;;;;;10.43;5.78;;;;;;;10.32;63.44;97644.84;1755564;80;28440;-85
2021/10/20 00:46:08;;;;;;;8.58;5.50;;;;;;;10.33;63.43;97645.98;1755729;80;25737;-85
2021/10/20 00:48:34;;;;;;;9.85;6.15;;;;;;;10.32;63.53;97635.40;1736029;80;25783;-85
2021/10/20 00:51:01;;;;;;;8.48;6.17;;;;;;;10.28;63.62;97639.02;1735460;81;26329;-85
2021/10/20 00:53:28;;;;;;;9.55;6.20;;;;;;;10.25;63.58;97639.44;1731590;80;25768;-84
2021/10/20 00:55:55;;;;;;;9.03;5.37;;;;;;;10.24;63.60;97628.34;1777820;80;27492;-84
2021/10/20 00:58:22;;;;;;;9.60;6.30;;;;;;;10.25;63.62;97635.39;1777840;80;25682;-85
2021/10/20 01:00:48;;;;;;;8.33;5.70;;;;;;;10.28;63.63;97631.44;1777920;80;25792;-85
2021/10/20 01:03:15;;;;;;;7.35;5.78;;;;;;;10.29;63.65;97624.48;1767201;79;25721;-84
2021/10/20 01:05:42;;;;;;;9.53;5.80;;;;;;;10.32;63.48;97616.00;1777926;79;26048;-84
2021/10/20 01:08:08;;;;;;;14.68;6.05;;;;;;;10.38;63.47;97612.49;1777782;79;28157;-84
2021/10/20 01:10:36;;;;;;;9.18;5.90;;;;;;;10.41;63.42;97605.31;1777734;79;25793;-85
2021/10/20 01:13:03;;;;;;;9.38;5.75;;;;;;;10.45;63.46;97608.44;1777905;80;25841;-84
2021/10/20 01:15:29;;;;;;;12.68;5.53;;;;;;;10.46;63.42;97604.19;1777851;79;25806;-84
2021/10/20 01:17:57;;;;;;;11.57;5.85;;;;;;;10.48;63.42;97610.73;1777691;79;25730;-84
2021/10/20 01:20:28;;;;;;;7.75;5.53;;;;;;;10.51;63.51;97614.87;1778151;79;27429;-85
2021/10/20 01:22:55;;;;;;;11.43;5.85;;;;;;;10.51;63.53;97608.13;1777704;80;25786;-84
2021/10/20 01:25:22;;;;;;;6.42;5.17;;;;;;;10.50;63.49;97601.09;1777755;79;25771;-85
2021/10/20 01:27:49;;;;;;;10.82;5.75;;;;;;;10.51;63.56;97597.33;1777810;79;26464;-85
2021/10/20 01:30:16;;;;;;;8.83;5.70;;;;;;;10.52;63.56;97603.03;1777785;79;25818;-84
2021/10/20 01:32:43;;;;;;;8.63;6.10;;;;;;;10.51;63.47;97590.06;1777772;79;27458;-84
2021/10/20 01:35:09;;;;;;;8.98;5.15;;;;;;;10.51;63.35;97591.92;1777662;79;25841;-84
2021/10/20 01:37:37;;;;;;;10.20;5.55;;;;;;;10.51;63.39;97589.22;1777744;79;26325;-84
2021/10/20 01:40:06;;;;;;;10.03;5.95;;;;;;;10.52;63.34;97576.87;1777410;79;25752;-83
2021/10/20 01:42:33;;;;;;;10.15;5.90;;;;;;;10.51;63.34;97582.48;1777536;79;25828;-84
2021/10/20 01:45:00;;;;;;;7.30;5.37;;;;;;;10.50;63.35;97576.80;1777848;79;27401;-84
2021/10/20 01:47:26;;;;;;;7.33;5.58;;;;;;;10.53;63.37;97568.27;1777807;79;25749;-84
2021/10/20 01:49:54;;;;;;;8.93;6.10;;;;;;;10.51;63.23;97562.23;1777772;79;25702;-84
2021/10/20 01:52:20;;;;;;;8.33;5.17;;;;;;;10.51;63.25;97548.74;1777836;79;25733;-84
2021/10/20 01:54:47;;;;;;;7.45;5.50;;;;;;;10.48;63.28;97552.71;1756140;79;25671;-84
2021/10/20 01:57:14;;;;;;;7.40;5.58;;;;;;;10.48;63.39;97553.23;1777752;80;27436;-84
2021/10/20 01:59:40;;;;;;;8.58;5.78;;;;;;;10.45;63.41;97553.12;1777700;79;25761;-84
2021/10/20 02:02:19;;;;;;;6.62;5.00;;;;;;;10.44;63.42;97550.94;1777806;79;25654;-84
2021/10/20 02:04:47;;;;;;;6.62;4.60;;;;;;;10.46;63.39;97548.86;1761597;79;25826;-87
2021/10/20 02:07:14;;;;;;;9.63;5.08;;;;;;;10.43;63.38;97556.02;1756446;80;25843;-83
2021/10/20 02:09:41;;;;;;;8.30;5.35;;;;;;;10.42;63.40;97562.45;1756416;80;28344;-84
2021/10/20 02:12:09;;;;;;;8.68;5.12;;;;;;;10.43;63.32;97564.12;1756091;80;25783;-84
2021/10/20 02:14:36;;;;;;;7.55;5.08;;;;;;;10.43;63.36;97558.72;1756326;80;25764;-84
2021/10/20 02:17:04;;;;;;;10.72;5.67;;;;;;;10.44;63.33;97552.80;1756264;80;26221;-84
2021/10/20 02:19:31;;;;;;;7.62;5.33;;;;;;;10.46;63.29;97549.38;1756353;80;25732;-84
2021/10/20 02:21:58;;;;;;;8.55;5.47;;;;;;;10.46;63.33;97558.31;1756383;80;27307;-84
2021/10/20 02:24:25;;;;;;;8.85;5.78;;;;;;;10.45;63.41;97562.56;1756314;80;25254;-84
2021/10/20 02:26:51;;;;;;;8.20;5.80;;;;;;;10.45;63.43;97559.86;1756265;80;26361;-84
2021/10/20 02:29:19;;;;;;;9.93;5.53;;;;;;;10.44;63.49;97556.33;1756246;80;26666;-84
2021/10/20 02:31:46;;;;;;;11.10;6.00;;;;;;;10.45;63.50;97551.77;1756070;80;25810;-86
2021/10/20 02:34:19;;;;;;;11.38;5.55;;;;;;;10.49;63.38;97560.29;1756152;80;27596;-84
2021/10/20 02:36:46;;;;;;;9.50;5.53;;;;;;;10.51;63.28;97552.27;1777670;79;25722;-85
2021/10/20 02:39:13;;;;;;;8.40;5.47;;;;;;;10.52;63.32;97545.01;1777458;79;25695;-84
2021/10/20 02:41:40;;;;;;;7.80;5.58;;;;;;;10.53;63.36;97541.27;1777760;79;25777;-84
2021/10/20 02:44:07;;;;;;;7.90;5.12;;;;;;;10.55;63.28;97536.50;1777779;79;25730;-84
2021/10/20 02:46:34;;;;;;;8.23;5.20;;;;;;;10.58;63.19;97538.80;1777788;80;27477;-83
2021/10/20 02:49:01;;;;;;;7.17;5.25;;;;;;;10.59;63.14;97537.77;1728649;81;25764;-83
2021/10/20 02:51:29;;;;;;;6.30;4.72;;;;;;;10.56;63.17;97543.05;1753239;80;25255;-83
2021/10/20 02:53:57;;;;;;;7.35;5.33;;;;;;;10.56;63.15;97539.52;1746694;80;25993;-84
2021/10/20 02:56:25;;;;;;;6.55;5.00;;;;;;;10.59;63.14;97544.51;1744840;80;25712;-84
2021/10/20 02:58:53;;;;;;;7.03;4.92;;;;;;;10.59;63.09;97535.89;1756347;80;27493;-84
2021/10/20 03:01:19;;;;;;;6.80;4.95;;;;;;;10.63;63.08;97529.02;1756049;81;25827;-84
2021/10/20 03:03:46;;;;;;;8.78;4.70;;;;;;;10.66;63.03;97524.56;1777882;79;25706;-84
2021/10/20 03:06:16;;;;;;;7.17;4.62;;;;;;;10.69;63.06;97518.75;1777840;79;25756;-84
2021/10/20 03:08:43;;;;;;;6.62;4.92;;;;;;;10.71;62.97;97531.52;1777873;80;25810;-83
2021/10/20 03:11:10;;;;;;;5.80;4.62;;;;;;;10.74;63.03;97516.78;1777903;79;27429;-86
2021/10/20 03:13:37;;;;;;;7.97;4.67;;;;;;;10.78;62.93;97515.30;1781480;79;25775;-85
2021/10/20 03:16:04;;;;;;;10.63;5.10;;;;;;;10.78;62.93;97520.19;1777922;79;25752;-84
2021/10/20 03:18:30;;;;;;;7.78;5.40;;;;;;;10.81;62.94;97510.84;1777913;80;26677;-84
2021/10/20 03:20:57;;;;;;;6.40;4.50;;;;;;;10.84;62.89;97513.12;1777797;79;25877;-84
2021/10/20 03:23:23;;;;;;;7.65;5.12;;;;;;;10.87;62.90;97515.94;1777895;79;27583;-83
2021/10/20 03:25:50;;;;;;;6.12;4.55;;;;;;;10.90;63.06;97512.27;1777649;79;25293;-84
2021/10/20 03:28:17;;;;;;;7.75;4.87;;;;;;;10.91;63.04;97516.63;1751455;80;25731;-83
2021/10/20 03:30:43;;;;;;;7.28;4.80;;;;;;;10.92;62.97;97516.95;1770110;79;25688;-84
2021/10/20 03:33:10;;;;;;;7.60;4.65;;;;;;;10.96;63.11;97518.72;1777847;79;25774;-84
2021/10/20 03:35:36;;;;;;;7.95;4.58;;;;;;;10.96;63.06;97497.94;1777919;80;27358;-84
2021/10/20 03:38:05;;;;;;;10.60;5.30;;;;;;;10.96;63.04;97503.86;1777845;79;25757;-84
2021/10/20 03:40:32;;;;;;;7.97;4.10;;;;;;;10.97;62.99;97501.47;1761664;80;25314;-84
2021/10/20 03:42:58;;;;;;;8.38;4.50;;;;;;;11.05;63.00;97506.12;1756308;80;25874;-83
2021/10/20 03:45:25;;;;;;;7.47;4.40;;;;;;;11.09;63.07;97503.83;1756369;80;25743;-84
2021/10/20 03:47:52;;;;;;;5.72;4.47;;;;;;;11.12;63.05;97495.27;1756424;80;27370;-84
2021/10/20 03:50:18;;;;;;;7.10;4.75;;;;;;;11.14;63.09;97487.27;1756222;80;25729;-83
2021/10/20 03:52:45;;;;;;;8.00;5.00;;;;;;;11.16;63.16;97486.55;1756405;80;25753;-83
2021/10/20 03:55:12;;;;;;;7.67;5.33;;;;;;;11.19;63.32;97479.89;1756490;80;26259;-83
2021/10/20 03:57:40;;;;;;;6.85;4.80;;;;;;;11.18;63.31;97489.04;1756243;80;25680;-84
2021/10/20 04:00:12;;;;;;;7.65;5.08;;;;;;;11.20;63.46;97482.91;1756394;80;27388;-84
2021/10/20 04:02:45;;;;;;;8.57;5.50;;;;;;;11.30;63.42;97488.69;1756542;80;25755;-83
2021/10/20 04:05:12;;;;;;;8.98;4.75;;;;;;;11.34;63.25;97479.64;1755782;80;25735;-85
2021/10/20 04:07:40;;;;;;;6.78;4.83;;;;;;;11.37;63.31;97480.53;1756298;80;26313;-83
2021/10/20 04:10:10;;;;;;;10.23;5.58;;;;;;;11.38;63.23;97481.67;1756361;80;26352;-83
2021/10/20 04:12:37;;;;;;;5.70;4.78;;;;;;;11.41;63.07;97484.48;1735617;80;28291;-83
2021/10/20 04:15:05;;;;;;;9.70;5.70;;;;;;;11.46;63.03;97478.75;1756270;80;26474;-84
2021/10/20 04:17:32;;;;;;;9.43;5.10;;;;;;;11.49;62.93;97474.77;1756312;80;25792;-83
2021/10/20 04:19:58;;;;;;;6.87;5.03;;;;;;;11.54;62.92;97477.66;1756447;80;26452;-83
2021/10/20 04:22:26;;;;;;;6.12;5.05;;;;;;;11.57;62.82;97473.19;1756372;80;25777;-85
2021/10/20 04:24:52;;;;;;;7.33;4.87;;;;;;;11.62;62.69;97471.99;1756412;80;27449;-84
2021/10/20 04:27:19;;;;;;;6.80;5.33;;;;;;;11.66;62.63;97461.06;1756329;80;25858;-84
2021/10/20 04:29:45;;;;;;;8.43;5.20;;;;;;;11.69;62.55;97459.28;1756388;80;26402;-83
2021/10/20 04:32:12;;;;;;;7.33;5.08;;;;;;;11.73;62.67;97461.02;1756393;80;25787;-83
2021/10/20 04:34:39;;;;;;;7.05;5.28;;;;;;;11.76;62.57;97450.63;1756472;80;26013;-83
2021/10/20 04:37:05;;;;;;;9.45;5.58;;;;;;;11.81;62.60;97451.34;1756326;80;27352;-83
2021/10/20 04:39:32;;;;;;;7.60;5.15;;;;;;;11.86;62.59;97441.51;1757651;80;25817;-83
2021/10/20 04:41:58;;;;;;;7.05;5.20;;;;;;;11.89;62.42;97449.20;1765374;81;25800;-84
2021/10/20 04:44:25;;;;;;;10.78;5.30;;;;;;;11.91;62.34;97448.98;1765012;80;25653;-82
2021/10/20 04:46:51;;;;;;;7.10;4.95;;;;;;;11.95;62.28;97446.67;1765408;81;26358;-82
2021/10/20 04:49:18;;;;;;;10.05;6.28;;;;;;;11.99;62.30;97447.87;1765086;80;27473;-83
2021/10/20 04:51:45;;;;;;;10.75;6.92;;;;;;;12.01;62.13;97437.14;1763017;81;25896;-83
2021/10/20 04:54:11;;;;;;;10.82;7.10;;;;;;;12.01;62.18;97441.20;1756541;81;25793;-84
2021/10/20 04:56:38;;;;;;;11.03;6.58;;;;;;;12.02;61.97;97436.62;1719226;81;26565;-84
2021/10/20 04:59:04;;;;;;;9.63;5.90;;;;;;;12.05;62.02;97438.89;1760622;79;26303;-85
2021/10/20 05:01:31;;;;;;;7.67;5.85;;;;;;;12.05;62.10;97441.60;1765044;80;28306;-84
2021/10/20 05:03:57;;;;;;;6.37;5.03;;;;;;;12.02;62.14;97439.33;1764919;79;25894;-83
2021/10/20 05:06:24;;;;;;;8.75;4.95;;;;;;;12.02;61.98;97437.97;1765104;80;25752;-83
2021/10/20 05:08:51;;;;;;;9.05;4.80;;;;;;;12.05;61.99;97447.02;1765216;79;25731;-84
2021/10/20 05:11:17;;;;;;;8.50;5.10;;;;;;;12.07;61.79;97434.09;1764945;80;26474;-84
2021/10/20 05:13:44;;;;;;;7.62;4.72;;;;;;;12.09;61.77;97442.80;1762978;80;28336;-84
2021/10/20 05:16:11;;;;;;;11.53;5.00;;;;;;;12.11;61.57;97432.59;1739567;81;26412;-83
2021/10/20 05:18:37;;;;;;;8.38;4.85;;;;;;;12.15;61.33;97435.17;1736192;81;25737;-83
2021/10/20 05:21:04;;;;;;;5.62;4.42;;;;;;;12.20;61.29;97427.20;1733651;81;25625;-83
2021/10/20 05:23:30;;;;;;;5.90;4.45;;;;;;;12.21;61.30;97435.62;1765104;80;25270;-83
2021/10/20 05:25:57;;;;;;;6.55;4.90;;;;;;;12.23;61.12;97445.70;1765251;79;27201;-83
2021/10/20 05:28:23;;;;;;;9.65;5.22;;;;;;;12.26;60.90;97420.91;1764843;80;25797;-83
2021/10/20 05:30:50;;;;;;;7.50;5.75;;;;;;;12.35;60.79;97425.52;1765169;79;25861;-83
2021/10/20 05:33:16;;;;;;;8.80;5.70;;;;;;;12.37;60.88;97421.55;1764989;80;25728;-84
2021/10/20 05:35:43;;;;;;;8.90;5.62;;;;;;;12.35;60.82;97412.81;1745276;81;25519;-83
2021/10/20 05:38:10;;;;;;;8.48;5.70;;;;;;;12.34;60.68;97415.73;1763076;81;28263;-83
2021/10/20 05:40:36;;;;;;;7.75;5.20;;;;;;;12.36;60.63;97405.00;1761684;80;25985;-83
2021/10/20 05:43:03;;;;;;;6.50;5.12;;;;;;;12.38;60.56;97413.73;1760592;81;26384;-83
2021/10/20 05:45:30;;;;;;;5.92;4.72;;;;;;;12.42;60.57;97414.12;1760617;81;25731;-83
2021/10/20 05:47:56;;;;;;;9.48;5.15;;;;;;;12.44;60.59;97416.88;1760596;81;25690;-84
2021/10/20 05:50:23;;;;;;;12.68;5.67;;;;;;;12.44;60.72;97408.77;1760649;81;27433;-84
2021/10/20 05:52:50;;;;;;;8.53;5.25;;;;;;;12.43;60.85;97404.95;1760495;81;26408;-83
2021/10/20 05:55:16;;;;;;;8.10;5.30;;;;;;;12.41;60.62;97413.30;1760587;81;25835;-83
2021/10/20 05:57:43;;;;;;;7.28;5.55;;;;;;;12.44;60.60;97401.99;1760423;81;26558;-83
2021/10/20 06:00:12;;;;;;;13.58;5.90;;;;;;;12.49;60.51;97404.88;1760363;81;26305;-83
2021/10/20 06:02:40;;;;;;;8.05;5.67;;;;;;;12.52;60.54;97403.08;1760650;81;27442;-83
2021/10/20 06:05:08;;;;;;;10.15;4.87;;;;;;;12.56;60.62;97405.62;1760435;81;25775;-83
2021/10/20 06:07:43;;;;;;;7.22;5.10;;;;;;;12.60;60.53;97407.37;1760569;81;25729;-84
2021/10/20 06:10:13;;;;;;;9.48;4.85;;;;;;;12.64;60.36;97395.05;1760272;80;25822;-84
2021/10/20 06:12:40;;;;;;;7.45;5.33;;;;;;;12.67;60.46;97393.77;1721540;81;25673;-84
2021/10/20 06:15:08;;;;;;;8.25;4.90;;;;;;;12.71;60.42;97403.91;1760701;81;27620;-83
2021/10/20 06:17:36;;;;;;;6.42;4.87;;;;;;;12.74;60.24;97399.93;1760721;81;25900;-83
2021/10/20 06:20:05;;;;;;;6.90;4.47;;;;;;;12.78;60.23;97401.98;1760642;81;25783;-84
2021/10/20 06:22:33;;;;;;;7.40;4.78;;;;;;;12.82;60.29;97409.94;1760695;81;25755;-84
2021/10/20 06:25:00;;;;;;;7.75;4.58;;;;;;;12.85;60.33;97410.84;1760412;81;25814;-84
2021/10/20 06:27:26;;;;;;;6.15;4.67;;;;;;;12.88;60.22;97410.41;1760602;81;28442;-84
2021/10/20 06:29:53;;;;;;;5.10;4.10;;;;;;;12.92;60.10;97410.79;1760496;81;25743;-83
2021/10/20 06:32:19;;;;;;;8.83;4.72;;;;;;;12.95;60.01;97419.27;1760640;81;25777;-85
2021/10/20 06:34:46;;;;;;;5.05;4.17;;;;;;;12.99;59.93;97413.71;1760916;81;25785;-83
2021/10/20 06:37:13;;;;;;;5.70;4.85;;;;;;;13.02;59.86;97405.66;1760882;81;25758;-83
2021/10/20 06:39:39;;;;;;;7.58;4.45;;;;;;;13.11;60.16;97404.30;1760741;81;27479;-83
2021/10/20 06:42:06;;;;;;;6.62;4.90;;;;;;;13.19;59.89;97406.71;1760423;81;25702;-83
2021/10/20 06:44:32;;;;;;;7.47;5.00;;;;;;;13.27;59.73;97399.64;1760062;81;25714;-84
2021/10/20 06:46:59;;;;;;;10.63;5.33;;;;;;;13.32;59.62;97401.13;1757263;80;25842;-84
2021/10/20 06:49:25;;;;;;;9.90;5.37;;;;;;;13.41;59.39;97406.22;1729062;80;25767;-84
2021/10/20 06:51:52;;;;;;;7.45;4.92;;;;;;;13.45;59.41;97405.55;1720721;80;27448;-84
2021/10/20 06:54:19;;;;;;;9.45;5.15;;;;;;;13.54;59.23;97406.05;1741262;80;25907;-85
2021/10/20 06:56:47;;;;;;;5.72;4.90;;;;;;;13.62;59.36;97409.81;1740257;80;25813;-85
2021/10/20 06:59:15;;;;;;;6.45;5.53;;;;;;;13.70;59.22;97405.41;1741246;81;26722;-85
2021/10/20 07:01:42;;;;;;;7.78;4.95;;;;;;;13.78;59.08;97403.70;1741232;80;26545;-84
2021/10/20 07:04:11;;;;;;;9.55;5.00;;;;;;;13.84;58.93;97397.38;1741244;81;27435;-84
2021/10/20 07:06:38;;;;;;;8.45;5.33;;;;;;;13.91;58.86;97408.94;1741136;81;25784;-84
2021/10/20 07:09:07;;;;;;;8.20;5.17;;;;;;;13.99;58.64;97400.48;1741277;80;25712;-84
2021/10/20 07:11:34;;;;;;;8.58;5.65;;;;;;;14.06;58.57;97407.97;1740449;81;26621;-84
2021/10/20 07:14:01;;;;;;;8.25;4.60;;;;;;;14.14;58.38;97405.44;1741337;81;25788;-85
2021/10/20 07:16:29;;;;;;;7.53;4.87;;;;;;;14.24;58.51;97399.45;1741292;81;27357;-84
2021/10/20 07:18:56;;;;;;;7.53;5.15;;;;;;;14.33;58.09;97396.68;1741015;81;26104;-84
2021/10/20 07:21:22;;;;;;;7.10;5.50;;;;;;;14.38;58.16;97403.04;1741256;81;25826;-84
2021/10/20 07:23:49;;;;;;;5.55;4.45;;;;;;;14.44;58.13;97408.11;1741250;81;25764;-87
2021/10/20 07:26:21;;;;;;;7.97;4.85;;;;;;;14.49;58.28;97401.42;1740942;81;26362;-84
2021/10/20 07:28:44;;;;;;;5.47;4.33;;;;;;;14.54;57.81;97401.55;1740530;81;27386;-83
2021/10/20 07:31:10;;;;;;;6.25;4.78;;;;;;;14.62;57.81;97399.83;1741171;81;25851;-83
2021/10/20 07:33:37;;;;;;;6.95;4.42;;;;;;;14.67;57.56;97386.37;1741174;81;25752;-84
2021/10/20 07:36:04;;;;;;;5.90;4.87;;;;;;;14.77;57.40;97385.23;1741194;81;26503;-84
2021/10/20 07:38:31;;;;;;;8.45;5.28;;;;;;;14.90;57.25;97391.47;1776053;80;25746;-84
2021/10/20 07:40:57;;;;;;;7.25;5.05;;;;;;;15.01;57.28;97394.70;1760132;81;27347;-84
2021/10/20 07:43:24;;;;;;;7.80;4.55;;;;;;;15.11;57.06;97398.98;1754932;81;26150;-84
2021/10/20 07:45:50;;;;;;;7.12;4.37;;;;;;;15.23;57.01;97393.52;1755107;81;25669;-84
2021/10/20 07:48:17;;;;;;;5.00;4.40;;;;;;;15.30;56.86;97392.86;1754954;81;25674;-84
2021/10/20 07:50:43;;;;;;;5.00;4.33;;;;;;;15.35;56.87;97395.13;1755110;81;25748;-84
2021/10/20 07:53:10;;;;;;;7.70;4.55;;;;;;;15.42;56.89;97384.95;1733807;80;27580;-84
2021/10/20 07:55:37;;;;;;;7.17;4.78;;;;;;;15.53;56.87;97381.06;1755082;81;25694;-85
2021/10/20 07:58:03;;;;;;;8.48;4.40;;;;;;;15.65;56.94;97376.42;1755018;81;25775;-84
2021/10/20 08:00:30;;;;;;;6.00;3.98;;;;;;;15.74;56.73;97392.11;1754990;81;26300;-86
2021/10/20 08:02:56;;;;;;;4.97;4.00;;;;;;;15.88;56.89;97380.91;1754942;81;25756;-85
2021/10/20 08:05:23;;;;;;;4.87;3.60;;;;;;;16.04;56.79;97379.58;1755051;81;28157;-84
2021/10/20 08:07:52;;;;;;;7.42;3.67;;;;;;;16.24;56.80;97379.61;1755081;81;25721;-83
2021/10/20 08:10:27;;;;;;;5.62;3.72;;;;;;;16.40;56.51;97377.43;1754612;81;25664;-84
2021/10/20 08:12:52;;;;;;;6.12;4.17;;;;;;;16.59;56.25;97374.71;1753401;81;25921;-84
2021/10/20 08:15:19;;;;;;;5.67;3.40;;;;;;;16.74;56.04;97377.69;1754999;81;25819;-84
2021/10/20 08:17:46;;;;;;;5.95;3.22;;;;;;;16.86;55.69;97372.95;1754992;81;28229;-84
2021/10/20 08:20:18;;;;;;;5.60;4.00;;;;;;;16.99;55.62;97375.03;1754912;81;25831;-85
2021/10/20 08:22:46;;;;;;;4.17;3.57;;;;;;;17.14;55.56;97362.42;1755410;81;25711;-84
2021/10/20 08:25:13;;;;;;;5.92;3.65;;;;;;;17.38;55.48;97370.33;1755129;81;25696;-85
2021/10/20 08:27:41;;;;;;;6.95;3.42;;;;;;;17.62;55.22;97367.59;1754951;81;25267;-84
2021/10/20 08:30:17;;;;;;;4.00;3.25;;;;;;;17.74;54.93;97372.94;1734131;81;28314;-84
2021/10/20 08:32:52;;;;;;;4.20;3.33;;;;;;;17.82;54.58;97368.36;1691841;83;25828;-84
2021/10/20 08:35:19;;;;;;;4.05;3.42;;;;;;;17.89;54.18;97353.41;1757736;80;25369;-85
2021/10/20 08:37:55;;;;;;;4.90;3.15;;;;;;;17.98;54.24;97364.70;1738723;81;25707;-86
2021/10/20 08:40:19;;;;;;;3.83;3.17;;;;;;;18.05;53.74;97358.47;1738493;81;25756;-85
2021/10/20 08:42:46;;;;;;;4.75;3.10;;;;;;;18.13;53.80;97347.59;1723183;82;27584;-86
2021/10/20 08:45:12;;;;;;;4.60;3.33;;;;;;;18.27;53.59;97351.54;1712051;82;25844;-84
2021/10/20 08:47:39;;;;;;;4.50;3.33;;;;;;;18.27;53.38;97352.37;1727203;81;25805;-85
2021/10/20 08:50:08;;;;;;;6.20;3.58;;;;;;;18.33;53.29;97351.33;1719848;81;26536;-86
2021/10/20 08:52:35;;;;;;;4.15;3.20;;;;;;;18.35;53.30;97342.31;1723507;81;25777;-85
2021/10/20 08:55:03;;;;;;;4.62;2.95;;;;;;;18.39;53.27;97349.98;1727363;82;27394;-83
2021/10/20 08:57:30;;;;;;;5.92;3.17;;;;;;;18.37;52.29;97336.58;1727204;81;25853;-84
2021/10/20 08:59:56;;;;;;;3.87;2.62;;;;;;;18.28;52.35;97336.25;1727463;81;25723;-84
2021/10/20 09:02:23;;;;;;;9.63;3.17;;;;;;;18.32;52.86;97336.02;1699068;82;25954;-85
2021/10/20 09:04:54;;;;;;;5.72;3.22;;;;;;;18.46;52.82;97330.10;1706782;81;25527;-88
2021/10/20 09:07:21;;;;;;;5.78;3.50;;;;;;;18.49;52.67;97340.48;1726892;81;27438;-84
2021/10/20 09:09:53;;;;;;;5.05;2.92;;;;;;;18.47;52.26;97320.83;1726852;82;26170;-84
2021/10/20 09:12:30;;;;;;;5.08;3.00;;;;;;;18.45;52.24;97322.98;1727403;81;26412;-86
2021/10/20 09:14:58;;;;;;;4.47;3.02;;;;;;;18.48;52.35;97306.86;1727217;81;26702;-84
2021/10/20 09:17:29;;;;;;;5.12;3.40;;;;;;;18.50;52.38;97319.73;1727342;81;25845;-84
2021/10/20 09:19:59;;;;;;;4.65;3.08;;;;;;;18.54;51.83;97334.53;1738984;80;28268;-87
2021/10/20 09:22:25;;;;;;;5.95;3.15;;;;;;;18.53;52.18;97311.01;1743251;80;25903;-84
2021/10/20 09:24:52;;;;;;;5.97;3.10;;;;;;;18.63;52.41;97304.80;1725256;82;25725;-85
2021/10/20 09:27:26;;;;;;;5.87;2.70;;;;;;;18.74;52.29;97305.67;1725227;82;25766;-84
2021/10/20 09:30:11;;;;;;;3.77;3.00;;;;;;;18.77;52.04;97303.24;1724988;83;25800;-84
2021/10/20 09:32:38;;;;;;;5.40;3.15;;;;;;;18.77;52.08;97301.88;1724989;82;27384;-84
2021/10/20 09:35:06;;;;;;;4.37;2.75;;;;;;;18.83;52.00;97303.56;1695512;83;25775;-85
2021/10/20 09:37:33;;;;;;;4.47;2.85;;;;;;;18.92;51.96;97303.86;1722494;82;26365;-83
2021/10/20 09:40:11;;;;;;;5.20;3.12;;;;;;;18.97;52.01;97303.87;1725120;82;25716;-84
2021/10/20 09:42:51;;;;;;;7.00;3.37;;;;;;;19.00;51.86;97290.48;1752475;80;25877;-84
2021/10/20 09:45:21;;;;;;;3.50;2.92;;;;;;;19.02;51.92;97293.78;1765276;81;28273;-85
2021/10/20 09:47:48;;;;;;;5.25;3.27;;;;;;;19.06;51.84;97288.61;1758010;79;25671;-84
2021/10/20 09:50:17;;;;;;;6.47;3.60;;;;;;;19.16;52.01;97283.70;1748993;81;26443;-85
2021/10/20 09:52:48;;;;;;;6.60;3.92;;;;;;;19.25;51.89;97277.98;1763117;79;25734;-85
2021/10/20 09:55:25;;;;;;;11.00;3.37;;;;;;;19.34;51.73;97290.03;1762555;79;25737;-84
2021/10/20 09:58:03;;;;;;;3.65;3.15;;;;;;;19.34;51.06;97280.45;1762603;81;27488;-84
2021/10/20 10:00:30;;;;;;;4.30;2.50;;;;;;;19.37;51.28;97275.82;1765091;79;25808;-84
2021/10/20 10:02:57;;;;;;;3.42;2.33;;;;;;;19.45;51.36;97273.91;1765240;79;25760;-84
2021/10/20 10:05:26;;;;;;;4.00;2.62;;;;;;;19.43;50.12;97274.75;1765303;79;26484;-85
2021/10/20 10:07:52;;;;;;;4.22;2.67;;;;;;;19.38;50.58;97282.94;1765050;79;25716;-87
2021/10/20 10:10:19;;;;;;;3.90;2.30;;;;;;;19.37;50.63;97280.75;1765081;79;27421;-85
2021/10/20 10:12:48;;;;;;;8.68;2.80;;;;;;;19.33;49.76;97279.64;1765124;79;25834;-83
2021/10/20 10:15:17;;;;;;;3.15;2.60;;;;;;;19.28;49.73;97284.29;1765251;80;26572;-84
2021/10/20 10:17:47;;;;;;;4.25;2.37;;;;;;;19.30;50.05;97277.46;1742237;81;25800;-84
2021/10/20 10:20:17;;;;;;;4.55;2.40;;;;;;;19.31;49.49;97281.02;1764929;80;25813;-84
2021/10/20 10:23:07;;;;;;;8.18;2.33;;;;;;;19.29;49.34;97257.20;1763124;81;27428;-83
2021/10/20 10:25:37;;;;;;;4.00;2.10;;;;;;;19.26;48.20;97256.37;1762748;79;25788;-86
2021/10/20 10:28:08;;;;;;;3.98;2.50;;;;;;;19.26;48.20;97248.16;1752657;81;25883;-83
2021/10/20 10:30:50;;;;;;;3.30;2.27;;;;;;;19.19;47.84;97253.91;1764856;80;25768;-84
2021/10/20 10:33:23;;;;;;;3.58;2.20;;;;;;;19.16;47.87;97244.03;1763097;81;25849;-85
2021/10/20 10:36:23;;;;;;;4.20;2.42;;;;;;;19.13;47.72;97241.83;1762939;81;27398;-84
2021/10/20 10:39:00;;;;;;;3.58;2.60;;;;;;;19.11;47.55;97239.36;1761431;79;25750;-87
2021/10/20 10:41:46;;;;;;;3.10;2.30;;;;;;;19.20;47.54;97231.47;1762899;80;25318;-86
2021/10/20 10:44:20;;;;;;;3.65;2.50;;;;;;;19.33;47.43;97236.39;1722183;81;26529;-85
2021/10/20 10:47:09;;;;;;;4.30;2.33;;;;;;;19.53;47.15;97225.52;1741137;79;25599;-90
2021/10/20 10:49:41;;;;;;;5.72;2.33;;;;;;;19.78;47.02;97237.03;1755470;80;27439;-85
2021/10/20 10:52:32;;;;;;;3.25;2.50;;;;;;;20.00;45.90;97223.03;1723478;82;25799;-86
2021/10/20 10:55:14;;;;;;;3.10;2.25;;;;;;;20.21;46.19;97213.67;1753203;80;25633;-86
2021/10/20 10:58:02;;;;;;;4.12;2.40;;;;;;;20.38;45.60;97203.26;1737783;80;25947;-85
2021/10/20 11:00:44;;;;;;;5.47;2.80;;;;;;;20.54;44.21;97204.01;1733589;80;25760;-85
2021/10/20 11:03:18;;;;;;;2.70;2.45;;;;;;;20.60;43.64;97197.97;1756523;80;27375;-86
2021/10/20 11:05:58;;;;;;;2.60;2.40;;;;;;;20.62;43.83;97191.66;1756187;80;26393;-86
2021/10/20 11:08:25;;;;;;;4.67;2.55;;;;;;;20.65;43.59;97199.33;1756227;80;26373;-85
2021/10/20 11:10:53;;;;;;;6.33;2.70;;;;;;;20.70;43.78;97197.92;1755897;80;25856;-87
2021/10/20 11:13:20;;;;;;;3.00;2.42;;;;;;;20.76;42.65;97185.84;1756242;80;25714;-87
2021/10/20 11:15:48;;;;;;;3.60;2.37;;;;;;;20.80;42.28;97189.09;1756112;80;27448;-85
2021/10/20 11:18:16;;;;;;;4.37;2.80;;;;;;;20.96;43.00;97174.75;1756152;80;25886;-85
2021/10/20 11:20:43;;;;;;;3.55;2.40;;;;;;;20.96;43.00;97174.75;1756382;80;25885;-83
2021/10/20 11:23:15;;;;;;;4.67;2.65;;;;;;;21.06;42.76;97174.69;1756605;80;26192;-84
2021/10/20 11:25:44;;;;;;;3.33;2.23;;;;;;;21.17;42.73;97175.44;1756667;80;26305;-91
2021/10/20 11:28:11;;;;;;;4.87;2.70;;;;;;;21.29;41.31;97172.36;1737177;80;27286;-84
2021/10/20 11:30:40;;;;;;;3.00;2.70;;;;;;;21.27;40.72;97170.45;1742283;80;25828;-87
2021/10/20 11:33:14;;;;;;;4.37;3.10;;;;;;;21.15;41.46;97138.66;1777413;79;26352;-84
2021/10/20 11:35:43;;;;;;;3.67;2.98;;;;;;;21.36;41.14;97131.70;1777325;80;26600;-87
2021/10/20 11:38:14;;;;;;;5.47;2.65;;;;;;;21.47;40.95;97130.50;1773737;79;25770;-85